Time;durP1;ratioP1;P1;durP2;ratioP2;P2;SDS_P1;SDS_P2;PMS_P1;PMS_P2;Temp;Humidity;BMP_temperature;BMP_pressure;BME280_temperature;BME280_humidity;BME280_pressure;Samples;Min_cycle;Max_cycle;Signal;HPM_P1;HPM_P2
2021/04/27 00:01:00;;;;;;;6.20;2.60;;;;;;;4.22;53.05;98996.47;5013374;28;20041;-60
2021/04/27 00:03:25;;;;;;;3.90;2.63;;;;;;;4.04;49.73;98992.63;5013641;28;20029;-60
2021/04/27 00:05:51;;;;;;;6.68;2.40;;;;;;;3.77;51.73;98996.28;5013166;28;20575;-60
2021/04/27 00:08:17;;;;;;;4.70;2.65;;;;;;;3.81;51.90;98993.03;5013414;28;20045;-59
2021/04/27 00:10:42;;;;;;;4.00;2.50;;;;;;;3.77;51.89;98985.69;5013206;28;20046;-60
2021/04/27 00:13:08;;;;;;;6.18;2.70;;;;;;;3.73;51.55;98984.47;5013462;28;20038;-60
2021/04/27 00:15:33;;;;;;;10.23;3.20;;;;;;;3.66;51.73;98973.88;4995475;28;20488;-59
2021/04/27 00:17:59;;;;;;;5.35;2.80;;;;;;;3.50;52.66;98969.78;5013250;28;20037;-60
2021/04/27 00:20:25;;;;;;;4.50;2.85;;;;;;;3.39;53.67;98971.19;4995316;28;20049;-60
2021/04/27 00:22:51;;;;;;;5.82;2.72;;;;;;;3.33;54.43;98968.56;5013561;28;20125;-60
2021/04/27 00:25:17;;;;;;;4.78;2.90;;;;;;;3.23;54.42;98964.44;5013200;28;20036;-60
2021/04/27 00:27:46;;;;;;;4.57;2.80;;;;;;;3.33;52.51;98957.97;5013215;28;20396;-60
2021/04/27 00:30:12;;;;;;;6.25;2.70;;;;;;;3.30;52.39;98953.88;4978683;28;20365;-60
2021/04/27 00:32:38;;;;;;;6.40;2.60;;;;;;;3.20;53.48;98951.63;5028211;28;20040;-60
2021/04/27 00:35:03;;;;;;;3.72;2.60;;;;;;;3.18;52.47;98945.69;5013069;28;20025;-60
2021/04/27 00:37:29;;;;;;;3.20;2.40;;;;;;;3.18;52.40;98952.84;5013287;28;20102;-60
2021/04/27 00:39:54;;;;;;;3.70;2.53;;;;;;;3.28;52.09;98955.09;5028468;28;20030;-60
2021/04/27 00:42:31;;;;;;;9.13;2.90;;;;;;;3.22;52.38;98956.69;5011488;28;20053;-60
2021/04/27 00:44:56;;;;;;;4.55;2.30;;;;;;;3.17;52.54;98959.13;5013169;28;20045;-60
2021/04/27 00:47:22;;;;;;;5.00;2.60;;;;;;;3.25;52.37;98964.25;5012466;28;20044;-60
2021/04/27 00:49:47;;;;;;;5.68;2.40;;;;;;;3.24;53.68;98959.97;5013263;28;20026;-59
2021/04/27 00:52:13;;;;;;;5.15;2.47;;;;;;;3.20;51.66;98954.28;5012541;28;20358;-60
2021/04/27 00:54:38;;;;;;;3.35;2.22;;;;;;;3.19;54.37;98957.09;5012884;28;20034;-60
2021/04/27 00:57:04;;;;;;;4.45;2.30;;;;;;;3.18;55.74;98953.66;5027906;28;20378;-60
2021/04/27 00:59:29;;;;;;;3.88;2.15;;;;;;;3.13;52.01;98945.50;5028272;28;20120;-59
2021/04/27 01:01:55;;;;;;;5.15;2.40;;;;;;;3.12;52.25;98946.53;5012316;28;20038;-60
2021/04/27 01:04:20;;;;;;;3.15;2.17;;;;;;;3.06;52.66;98942.00;5012852;28;20460;-60
2021/04/27 01:06:48;;;;;;;4.25;2.42;;;;;;;3.10;58.52;98948.56;5012290;28;20050;-60
2021/04/27 01:09:17;;;;;;;5.35;2.50;;;;;;;3.10;57.50;98947.75;5027810;28;20088;-59
2021/04/27 01:11:59;;;;;;;4.00;2.20;;;;;;;3.11;52.29;98939.56;4994842;28;20132;-59
2021/04/27 01:14:34;;;;;;;4.38;2.50;;;;;;;3.15;53.56;98942.66;5012764;28;20113;-60
2021/04/27 01:17:10;;;;;;;4.38;2.50;;;;;;;3.24;52.90;98939.63;5012376;28;20038;-60
2021/04/27 01:19:55;;;;;;;4.03;2.22;;;;;;;3.22;51.86;98932.88;5027955;28;20522;-59
2021/04/27 01:22:25;;;;;;;3.78;2.38;;;;;;;3.26;52.44;98933.28;5012291;28;20404;-60
2021/04/27 01:24:51;;;;;;;4.53;2.40;;;;;;;3.20;52.88;98932.28;5010263;28;20032;-59
2021/04/27 01:27:17;;;;;;;3.85;2.30;;;;;;;3.03;53.00;98935.28;5010882;28;20034;-59
2021/04/27 01:29:42;;;;;;;3.60;2.28;;;;;;;2.98;54.61;98928.97;5011348;28;20053;-60
2021/04/27 01:32:08;;;;;;;4.05;2.70;;;;;;;2.91;53.05;98926.28;5011952;28;20057;-59
2021/04/27 01:34:38;;;;;;;4.47;2.53;;;;;;;2.93;53.56;98923.47;5012472;28;20037;-59
2021/04/27 01:37:05;;;;;;;5.55;2.35;;;;;;;2.98;52.68;98923.69;5012008;28;20041;-60
2021/04/27 01:39:30;;;;;;;4.28;2.60;;;;;;;2.82;53.18;98919.53;5012221;28;20461;-60
2021/04/27 01:41:58;;;;;;;3.80;2.45;;;;;;;2.73;54.24;98921.56;5013122;28;20038;-60
2021/04/27 01:44:23;;;;;;;3.17;2.38;;;;;;;2.66;53.87;98918.09;5016239;28;20084;-60
2021/04/27 01:46:49;;;;;;;4.45;2.53;;;;;;;2.59;54.38;98915.41;5014543;28;20420;-60
2021/04/27 01:49:15;;;;;;;5.07;2.50;;;;;;;2.59;54.50;98919.88;5014913;28;20424;-60
2021/04/27 01:51:40;;;;;;;5.65;2.45;;;;;;;2.63;54.15;98912.38;5030704;28;20053;-59
2021/04/27 01:54:06;;;;;;;5.45;2.90;;;;;;;2.69;54.46;98920.31;4998367;28;20033;-60
2021/04/27 01:56:31;;;;;;;5.15;2.63;;;;;;;2.79;53.34;98909.38;5015622;28;20050;-59
2021/04/27 01:58:57;;;;;;;3.10;2.50;;;;;;;2.78;53.88;98919.16;5016048;28;20468;-60
2021/04/27 02:01:22;;;;;;;3.63;2.55;;;;;;;2.92;52.42;98916.53;5014463;28;20428;-59
2021/04/27 02:03:48;;;;;;;5.88;2.60;;;;;;;2.87;52.41;98908.38;5015876;28;20030;-59
2021/04/27 02:06:13;;;;;;;5.53;2.80;;;;;;;2.86;52.98;98910.19;5015306;28;20180;-59
2021/04/27 02:08:39;;;;;;;3.58;2.50;;;;;;;2.67;54.70;98900.38;5015468;28;20037;-59
2021/04/27 02:11:05;;;;;;;5.50;2.55;;;;;;;2.74;53.86;98907.31;4997627;28;20053;-60
2021/04/27 02:13:31;;;;;;;4.35;2.72;;;;;;;2.74;53.69;98903.84;5015543;28;20038;-59
2021/04/27 02:15:56;;;;;;;4.57;2.58;;;;;;;2.63;55.29;98904.44;4997799;28;20068;-59
2021/04/27 02:18:28;;;;;;;6.90;2.65;;;;;;;2.55;55.72;98897.50;5031235;28;20069;-60
2021/04/27 02:20:54;;;;;;;3.13;2.40;;;;;;;2.49;56.12;98908.88;5015026;28;20120;-60
2021/04/27 02:23:19;;;;;;;4.68;2.65;;;;;;;2.36;55.92;98902.50;5015391;28;20038;-59
2021/04/27 02:25:45;;;;;;;4.05;2.80;;;;;;;2.41;56.79;98911.69;5029939;28;20053;-59
2021/04/27 02:28:11;;;;;;;4.63;2.50;;;;;;;2.30;57.63;98907.78;4997788;28;20041;-59
2021/04/27 02:30:36;;;;;;;5.30;2.60;;;;;;;2.43;55.73;98897.25;5014972;28;20042;-60
2021/04/27 02:33:02;;;;;;;4.88;2.80;;;;;;;2.43;56.01;98907.03;5030668;28;20104;-59
2021/04/27 02:35:27;;;;;;;5.13;2.72;;;;;;;2.53;54.92;98904.81;5030032;28;20045;-60
2021/04/27 02:37:52;;;;;;;3.70;2.50;;;;;;;2.43;56.40;98909.66;5030239;28;20056;-60
2021/04/27 02:40:26;;;;;;;4.85;2.42;;;;;;;2.45;56.07;98903.16;4997185;28;20428;-60
2021/04/27 02:42:56;;;;;;;6.82;2.85;;;;;;;2.45;57.69;98905.00;4997803;28;20037;-60
2021/04/27 02:45:30;;;;;;;3.90;2.70;;;;;;;2.28;57.82;98909.81;5014570;28;20077;-60
2021/04/27 02:48:12;;;;;;;3.63;2.45;;;;;;;2.23;59.18;98904.28;5015078;28;20026;-60
2021/04/27 02:50:40;;;;;;;4.82;2.90;;;;;;;2.18;57.46;98902.22;5014642;28;20065;-59
2021/04/27 02:53:05;;;;;;;4.68;2.70;;;;;;;2.19;56.88;98898.56;5013981;28;20058;-60
2021/04/27 02:55:31;;;;;;;3.42;2.50;;;;;;;2.16;57.24;98893.66;4996951;28;20053;-60
2021/04/27 02:57:56;;;;;;;4.68;2.50;;;;;;;2.25;58.24;98903.09;5014715;28;20030;-60
2021/04/27 03:00:22;;;;;;;3.58;2.45;;;;;;;2.42;57.07;98897.44;5014099;28;20046;-59
2021/04/27 03:02:47;;;;;;;4.03;2.50;;;;;;;2.32;57.54;98896.00;5014602;28;20026;-59
2021/04/27 03:05:13;;;;;;;4.05;2.60;;;;;;;2.13;58.34;98897.53;5014152;28;20034;-59
2021/04/27 03:07:38;;;;;;;5.15;2.60;;;;;;;2.02;58.74;98898.09;5014605;28;20050;-59
2021/04/27 03:10:04;;;;;;;4.60;2.63;;;;;;;1.99;57.60;98901.09;5014392;28;20374;-59
2021/04/27 03:12:30;;;;;;;4.50;2.63;;;;;;;1.86;58.05;98893.91;5014566;28;20037;-59
2021/04/27 03:14:55;;;;;;;3.53;2.47;;;;;;;1.84;57.59;98890.66;5014420;28;20436;-59
2021/04/27 03:17:21;;;;;;;4.25;2.60;;;;;;;1.85;57.28;98892.28;5013522;28;20034;-59
2021/04/27 03:19:46;;;;;;;4.35;2.80;;;;;;;1.86;58.45;98896.56;5014362;28;20030;-59
2021/04/27 03:22:11;;;;;;;4.13;2.55;;;;;;;1.79;57.77;98887.78;5013968;28;20042;-59
2021/04/27 03:24:37;;;;;;;4.72;2.35;;;;;;;1.89;56.86;98882.13;5013107;28;20026;-58
2021/04/27 03:27:02;;;;;;;4.28;2.60;;;;;;;1.79;57.52;98886.97;5013710;28;20492;-59
2021/04/27 03:29:28;;;;;;;3.75;2.53;;;;;;;1.70;57.75;98879.19;4996627;28;20348;-61
2021/04/27 03:31:53;;;;;;;3.13;2.42;;;;;;;1.84;56.77;98885.34;5013552;28;20045;-60
2021/04/27 03:34:19;;;;;;;3.95;2.60;;;;;;;1.75;57.39;98878.63;5014381;28;20034;-61
2021/04/27 03:36:44;;;;;;;4.13;2.80;;;;;;;1.65;58.13;98880.78;5013471;28;20038;-60
2021/04/27 03:39:09;;;;;;;3.45;2.45;;;;;;;1.63;57.53;98888.91;4996641;28;20392;-60
2021/04/27 03:41:35;;;;;;;6.00;2.60;;;;;;;1.61;59.54;98884.81;5013707;28;20042;-61
2021/04/27 03:44:00;;;;;;;5.25;2.70;;;;;;;1.54;59.65;98884.75;5014229;28;20063;-61
2021/04/27 03:46:26;;;;;;;5.03;2.50;;;;;;;1.50;59.39;98884.34;5013348;28;20038;-60
2021/04/27 03:48:51;;;;;;;3.88;2.80;;;;;;;1.53;63.53;98887.63;5014035;28;20030;-61
2021/04/27 03:51:16;;;;;;;3.95;2.58;;;;;;;1.50;58.90;98889.63;5013413;28;20049;-59
2021/04/27 03:53:42;;;;;;;4.38;2.67;;;;;;;1.42;59.22;98881.84;5013956;28;20369;-60
2021/04/27 03:56:07;;;;;;;3.92;2.78;;;;;;;1.43;59.06;98886.13;5013348;28;20038;-61
2021/04/27 03:58:33;;;;;;;4.80;3.00;;;;;;;1.39;59.30;98887.50;5013755;28;20060;-59
2021/04/27 04:00:58;;;;;;;6.55;2.63;;;;;;;1.35;59.58;98886.25;5013168;28;20041;-59
2021/04/27 04:03:23;;;;;;;3.53;2.47;;;;;;;1.22;60.25;98883.50;5014026;28;20034;-58
2021/04/27 04:05:49;;;;;;;5.63;2.50;;;;;;;1.17;61.81;98888.53;5013009;28;20049;-59
2021/04/27 04:08:15;;;;;;;4.00;2.50;;;;;;;1.40;61.25;98883.03;5013459;28;20048;-59
2021/04/27 04:10:40;;;;;;;3.83;2.45;;;;;;;1.41;62.14;98889.94;4995690;28;20041;-59
2021/04/27 04:13:06;;;;;;;3.92;2.60;;;;;;;1.35;60.00;98886.25;4995930;28;20021;-59
2021/04/27 04:15:31;;;;;;;4.68;2.78;;;;;;;1.38;59.14;98885.88;5013059;28;20034;-59
2021/04/27 04:17:56;;;;;;;5.85;2.60;;;;;;;1.45;58.83;98886.75;5013499;28;20034;-59
2021/04/27 04:20:23;;;;;;;4.57;2.53;;;;;;;1.53;58.72;98888.41;5013022;28;20093;-59
2021/04/27 04:22:49;;;;;;;6.60;2.63;;;;;;;1.50;58.25;98886.97;5013525;28;20033;-59
2021/04/27 04:25:14;;;;;;;4.63;2.55;;;;;;;2.13;56.97;98881.66;5013029;28;20468;-60
2021/04/27 04:27:40;;;;;;;4.90;2.60;;;;;;;2.19;56.22;98885.34;5013076;28;20428;-61
2021/04/27 04:30:12;;;;;;;5.63;2.70;;;;;;;3.37;52.41;98890.28;5013055;28;20131;-59
2021/04/27 04:32:38;;;;;;;3.88;2.50;;;;;;;5.38;46.58;98895.41;5012179;28;20041;-59
2021/04/27 04:35:04;;;;;;;5.68;2.47;;;;;;;6.43;43.60;98891.13;5012841;28;20040;-59
2021/04/27 04:37:29;;;;;;;5.97;2.45;;;;;;;5.62;45.86;98887.66;5013401;28;20030;-61
2021/04/27 04:39:55;;;;;;;3.70;2.45;;;;;;;5.19;45.73;98894.56;5013282;28;20026;-59
2021/04/27 04:42:20;;;;;;;3.85;2.50;;;;;;;6.01;43.93;98885.66;5012845;28;20042;-61
2021/04/27 04:44:45;;;;;;;4.95;2.78;;;;;;;6.20;43.61;98892.63;5013173;28;20026;-61
2021/04/27 04:47:11;;;;;;;4.03;2.35;;;;;;;7.50;39.08;98901.91;5011866;28;20420;-59
2021/04/27 04:49:36;;;;;;;4.30;2.63;;;;;;;7.82;39.35;98898.91;5013326;28;20500;-59
2021/04/27 04:52:02;;;;;;;4.22;2.25;;;;;;;9.63;36.13;98904.75;5012672;28;20034;-61
2021/04/27 04:54:27;;;;;;;5.03;2.42;;;;;;;10.94;34.11;98904.09;5013254;28;20381;-59
2021/04/27 04:56:53;;;;;;;6.28;2.60;;;;;;;11.20;34.03;98907.81;5012803;28;20041;-59
2021/04/27 04:59:18;;;;;;;6.22;2.90;;;;;;;11.72;33.10;98909.06;5013205;28;20026;-60
2021/04/27 05:01:44;;;;;;;4.68;3.28;;;;;;;11.09;34.74;98910.66;5012777;28;20038;-59
2021/04/27 05:04:09;;;;;;;7.30;3.20;;;;;;;11.95;33.42;98921.31;5013054;28;20451;-60
2021/04/27 05:06:41;;;;;;;4.90;2.90;;;;;;;12.51;31.69;98915.44;5012459;28;20038;-60
2021/04/27 05:09:07;;;;;;;4.13;2.40;;;;;;;11.08;34.73;98909.03;5012984;28;20365;-60
2021/04/27 05:11:33;;;;;;;4.65;2.53;;;;;;;11.37;33.33;98907.69;5012682;28;20128;-60
2021/04/27 05:13:58;;;;;;;5.47;2.53;;;;;;;11.41;32.85;98911.50;5044628;28;20442;-60
2021/04/27 05:16:24;;;;;;;4.68;2.70;;;;;;;12.65;30.49;98916.56;5012901;28;20033;-60
2021/04/27 05:18:50;;;;;;;5.25;2.60;;;;;;;13.35;30.15;98918.91;5032100;28;20026;-60
2021/04/27 05:21:15;;;;;;;5.35;2.60;;;;;;;13.63;30.00;98919.44;5025457;28;20053;-60
2021/04/27 05:23:41;;;;;;;3.97;2.60;;;;;;;12.47;31.22;98922.41;4999371;28;20022;-60
2021/04/27 05:26:06;;;;;;;3.92;2.50;;;;;;;12.91;29.71;98919.34;5016415;28;20037;-61
2021/04/27 05:28:31;;;;;;;5.00;2.60;;;;;;;11.97;32.95;98926.44;5016636;28;20026;-61
2021/04/27 05:30:57;;;;;;;4.53;2.90;;;;;;;12.12;32.99;98923.03;5016163;28;20057;-60
2021/04/27 05:33:22;;;;;;;5.55;2.70;;;;;;;12.89;31.59;98922.28;5032088;28;20030;-61
2021/04/27 05:35:48;;;;;;;5.22;2.40;;;;;;;13.65;29.75;98920.00;5016247;28;20439;-60
2021/04/27 05:38:14;;;;;;;5.20;2.78;;;;;;;15.20;27.65;98928.16;5016504;28;20113;-60
2021/04/27 05:40:39;;;;;;;7.32;2.60;;;;;;;15.38;26.66;98923.97;5015962;28;20049;-60
2021/04/27 05:43:05;;;;;;;3.20;2.28;;;;;;;16.46;24.73;98929.19;5016271;28;20026;-60
2021/04/27 05:45:30;;;;;;;8.02;5.72;;;;;;;16.02;25.46;98922.09;5015872;28;20481;-60
2021/04/27 05:47:55;;;;;;;11.85;6.43;;;;;;;15.89;25.69;98925.47;5016187;28;20068;-61
2021/04/27 05:50:21;;;;;;;12.40;7.75;;;;;;;16.25;25.21;98925.94;4998236;28;20046;-60
2021/04/27 05:52:46;;;;;;;14.60;8.60;;;;;;;16.94;23.97;98922.94;5015997;28;20026;-60
2021/04/27 05:55:12;;;;;;;16.95;9.75;;;;;;;16.28;24.79;98925.34;4998085;28;20026;-60
2021/04/27 05:57:38;;;;;;;16.23;7.68;;;;;;;16.58;23.59;98917.97;5014268;28;20057;-61
2021/04/27 06:00:04;;;;;;;14.30;6.03;;;;;;;16.47;24.34;98919.97;4998064;28;20106;-61
2021/04/27 06:02:29;;;;;;;8.10;4.72;;;;;;;17.22;23.27;98921.19;5015694;28;20338;-62
2021/04/27 06:04:55;;;;;;;7.47;3.20;;;;;;;16.51;24.65;98917.50;5015818;28;20067;-62
2021/04/27 06:07:20;;;;;;;5.68;2.40;;;;;;;16.71;24.13;98924.56;5015248;28;20050;-62
2021/04/27 06:09:46;;;;;;;7.38;2.38;;;;;;;17.28;23.14;98920.03;5031182;28;20029;-62
2021/04/27 06:12:11;;;;;;;6.72;2.28;;;;;;;17.20;22.84;98915.28;5015350;28;20050;-62
2021/04/27 06:14:37;;;;;;;5.10;2.28;;;;;;;17.89;21.38;98921.75;4998355;28;20357;-62
2021/04/27 06:17:02;;;;;;;5.32;2.13;;;;;;;18.37;21.18;98933.38;4997990;28;20172;-62
2021/04/27 06:19:28;;;;;;;5.28;2.40;;;;;;;18.14;20.82;98927.81;5015770;28;20029;-62
2021/04/27 06:21:53;;;;;;;3.58;2.40;;;;;;;17.75;21.79;98915.47;5015111;28;20038;-62
2021/04/27 06:24:19;;;;;;;4.13;2.10;;;;;;;17.61;20.24;98926.25;5015534;28;20022;-62
2021/04/27 06:26:45;;;;;;;6.47;2.00;;;;;;;16.87;21.22;98925.19;4997557;28;20042;-61
2021/04/27 06:29:10;;;;;;;2.95;1.98;;;;;;;16.31;22.04;98923.97;5015368;28;20030;-61
2021/04/27 06:31:36;;;;;;;3.95;1.90;;;;;;;17.10;20.32;98924.34;5014792;28;20034;-61
2021/04/27 06:34:03;;;;;;;5.93;2.50;;;;;;;14.73;23.79;98916.00;5015357;28;20026;-63
2021/04/27 06:36:30;;;;;;;5.78;2.30;;;;;;;16.15;22.07;98923.34;5015029;28;20045;-62
2021/04/27 06:38:55;;;;;;;3.58;1.98;;;;;;;14.24;24.85;98919.38;5015270;28;20026;-61
2021/04/27 06:41:20;;;;;;;3.05;2.03;;;;;;;14.24;24.73;98908.59;5014763;28;20041;-61
2021/04/27 06:43:50;;;;;;;4.40;2.08;;;;;;;15.43;22.67;98909.63;5015225;28;20060;-62
2021/04/27 06:46:15;;;;;;;7.00;2.43;;;;;;;16.76;21.09;98910.97;4997027;28;20037;-62
2021/04/27 06:48:41;;;;;;;4.20;2.25;;;;;;;15.81;22.79;98912.56;5014948;28;20384;-62
2021/04/27 06:51:06;;;;;;;4.10;2.38;;;;;;;15.59;22.56;98913.00;5014197;28;20042;-62
2021/04/27 06:53:32;;;;;;;5.22;2.10;;;;;;;14.69;23.69;98911.41;5014960;28;20062;-62
2021/04/27 06:55:58;;;;;;;6.97;2.15;;;;;;;16.28;22.12;98911.81;5014515;28;20049;-61
2021/04/27 06:58:23;;;;;;;9.30;2.33;;;;;;;17.01;21.22;98912.56;5014926;28;20037;-61
2021/04/27 07:00:49;;;;;;;5.25;1.90;;;;;;;17.77;20.71;98917.88;5014347;28;20089;-62
2021/04/27 07:03:14;;;;;;;3.75;2.13;;;;;;;16.44;21.70;98911.63;5014815;28;20045;-62
2021/04/27 07:05:42;;;;;;;4.88;2.10;;;;;;;14.35;23.82;98904.78;4996712;28;20034;-62
2021/04/27 07:08:07;;;;;;;5.68;2.00;;;;;;;16.16;21.81;98903.31;5014517;28;20046;-61
2021/04/27 07:10:33;;;;;;;5.50;2.00;;;;;;;16.26;21.74;98907.78;5014148;28;20416;-62
2021/04/27 07:12:58;;;;;;;6.10;2.00;;;;;;;15.45;22.40;98896.63;5014635;28;20038;-61
2021/04/27 07:15:24;;;;;;;7.00;2.05;;;;;;;17.69;20.14;98898.47;5014267;28;20048;-62
2021/04/27 07:17:49;;;;;;;5.32;1.98;;;;;;;16.60;20.92;98899.56;5014683;28;20022;-62
2021/04/27 07:20:15;;;;;;;9.75;2.22;;;;;;;16.92;20.75;98893.44;5014116;28;20475;-62
2021/04/27 07:22:40;;;;;;;4.72;2.13;;;;;;;15.53;22.34;98890.63;5014380;28;20022;-61
2021/04/27 07:25:06;;;;;;;6.03;2.17;;;;;;;14.11;23.94;98890.31;5013959;28;20043;-61
2021/04/27 07:27:32;;;;;;;6.85;2.17;;;;;;;15.81;23.10;98890.97;5014245;28;20049;-61
2021/04/27 07:29:57;;;;;;;5.28;2.13;;;;;;;15.99;22.52;98887.53;5014526;28;20026;-61
2021/04/27 07:32:23;;;;;;;4.07;2.00;;;;;;;14.63;23.79;98880.97;5013845;28;20488;-61
2021/04/27 07:34:49;;;;;;;8.35;2.33;;;;;;;15.78;23.23;98886.13;5013078;28;20491;-61
2021/04/27 07:37:15;;;;;;;3.67;2.30;;;;;;;15.18;22.94;98881.72;4996385;28;20429;-61
2021/04/27 07:39:40;;;;;;;3.03;1.90;;;;;;;13.97;25.15;98881.97;4996079;28;20026;-61
2021/04/27 07:42:06;;;;;;;6.88;2.33;;;;;;;14.57;24.12;98873.97;5013743;28;20034;-61
2021/04/27 07:44:31;;;;;;;4.65;2.17;;;;;;;13.12;25.56;98872.56;5014208;28;20105;-61
2021/04/27 07:46:57;;;;;;;9.32;2.65;;;;;;;15.59;23.31;98867.88;5013506;28;20037;-61
2021/04/27 07:49:22;;;;;;;3.42;2.08;;;;;;;15.21;21.86;98867.66;5014132;28;20381;-62
2021/04/27 07:51:47;;;;;;;6.15;2.30;;;;;;;13.77;24.53;98866.66;4995792;28;20439;-62
2021/04/27 07:54:13;;;;;;;3.08;2.00;;;;;;;13.23;25.12;98869.88;5013800;28;20026;-62
2021/04/27 07:56:38;;;;;;;3.88;2.20;;;;;;;12.81;25.86;98866.34;5012154;28;20041;-62
2021/04/27 07:59:05;;;;;;;4.03;2.25;;;;;;;13.68;25.85;98863.72;5013979;28;20349;-61
2021/04/27 08:01:32;;;;;;;3.42;2.20;;;;;;;13.19;25.47;98866.94;5028440;28;20041;-61
2021/04/27 08:03:57;;;;;;;5.85;2.10;;;;;;;13.05;25.62;98855.06;5012579;28;20029;-61
2021/04/27 08:06:23;;;;;;;4.70;2.33;;;;;;;13.84;24.21;98853.72;5013084;28;20033;-62
2021/04/27 08:08:48;;;;;;;6.82;2.20;;;;;;;12.89;25.47;98867.69;4996038;28;20029;-62
2021/04/27 08:11:17;;;;;;;3.78;1.92;;;;;;;11.98;26.59;98858.22;5012951;28;20037;-62
2021/04/27 08:13:42;;;;;;;6.78;2.10;;;;;;;11.54;26.95;98858.47;5013876;28;20057;-62
2021/04/27 08:16:08;;;;;;;6.40;2.25;;;;;;;13.32;25.40;98849.47;5013332;28;20080;-61
2021/04/27 08:18:36;;;;;;;6.18;2.25;;;;;;;13.17;25.53;98847.56;5013453;28;20029;-61
2021/04/27 08:21:01;;;;;;;4.10;2.10;;;;;;;12.77;26.06;98856.38;4995798;28;20480;-62
2021/04/27 08:23:27;;;;;;;6.05;2.40;;;;;;;12.78;25.60;98844.53;5013303;28;20049;-62
2021/04/27 08:25:52;;;;;;;4.97;2.10;;;;;;;13.27;25.33;98846.78;5013163;28;20064;-62
2021/04/27 08:28:18;;;;;;;3.28;2.08;;;;;;;13.01;25.09;98849.44;5013335;28;20507;-62
2021/04/27 08:30:43;;;;;;;4.78;2.55;;;;;;;12.42;26.77;98842.56;5013136;28;20045;-62
2021/04/27 08:33:08;;;;;;;4.80;2.30;;;;;;;12.17;26.19;98854.03;4995723;28;20083;-61
2021/04/27 08:35:34;;;;;;;3.70;2.28;;;;;;;12.56;25.46;98842.88;5012784;28;20117;-61
2021/04/27 08:37:59;;;;;;;4.22;2.10;;;;;;;13.29;24.86;98845.44;5013244;28;20041;-61
2021/04/27 08:40:25;;;;;;;6.15;2.30;;;;;;;13.19;25.10;98836.53;5012836;28;20030;-62
2021/04/27 08:42:50;;;;;;;4.45;2.42;;;;;;;13.04;25.06;98831.94;5013167;28;20026;-61
2021/04/27 08:45:16;;;;;;;4.95;2.40;;;;;;;13.12;26.34;98826.81;5012882;28;20057;-62
2021/04/27 08:47:42;;;;;;;6.38;2.10;;;;;;;14.44;24.29;98827.63;5013276;28;20385;-62
2021/04/27 08:50:10;;;;;;;3.35;2.10;;;;;;;13.46;25.03;98836.28;5012764;28;20030;-62
2021/04/27 08:52:35;;;;;;;4.78;2.20;;;;;;;14.31;25.44;98828.25;5015545;28;20033;-62
2021/04/27 08:55:01;;;;;;;3.03;2.10;;;;;;;13.47;24.88;98827.91;5017038;28;20376;-62
2021/04/27 08:57:26;;;;;;;5.72;2.25;;;;;;;14.12;25.00;98833.44;5017349;28;20025;-61
2021/04/27 08:59:52;;;;;;;3.60;2.15;;;;;;;13.78;24.52;98820.63;5032488;28;20442;-61
2021/04/27 09:02:25;;;;;;;3.45;2.28;;;;;;;15.35;23.11;98818.41;5016617;28;20033;-61
2021/04/27 09:04:51;;;;;;;2.97;2.00;;;;;;;14.57;24.60;98822.75;5017040;28;20060;-62
2021/04/27 09:07:18;;;;;;;5.05;2.40;;;;;;;13.98;24.83;98814.34;5016281;28;20053;-62
2021/04/27 09:09:45;;;;;;;2.85;1.90;;;;;;;14.63;23.64;98819.75;4999380;28;20026;-62
2021/04/27 09:12:11;;;;;;;4.63;2.28;;;;;;;13.21;25.34;98816.34;5016339;28;20049;-61
2021/04/27 09:14:38;;;;;;;3.78;2.22;;;;;;;14.41;23.77;98822.00;5016757;28;20033;-61
2021/04/27 09:17:05;;;;;;;7.30;2.22;;;;;;;13.58;25.80;98805.31;5016159;28;20484;-61
2021/04/27 09:19:40;;;;;;;3.97;2.20;;;;;;;14.99;24.13;98816.00;5016723;28;20392;-62
2021/04/27 09:22:12;;;;;;;5.88;2.38;;;;;;;15.79;23.56;98809.38;5016301;28;20057;-61
2021/04/27 09:24:55;;;;;;;5.80;2.25;;;;;;;15.88;22.76;98811.16;5016521;28;20030;-62
2021/04/27 09:27:35;;;;;;;4.45;2.25;;;;;;;14.42;24.43;98813.63;5015059;28;20038;-62
2021/04/27 09:30:20;;;;;;;6.97;2.28;;;;;;;15.21;23.61;98800.16;5016123;28;20117;-62
2021/04/27 09:32:56;;;;;;;3.90;2.28;;;;;;;14.93;23.87;98795.56;5016619;28;20476;-62
2021/04/27 09:35:35;;;;;;;3.85;2.17;;;;;;;15.01;22.82;98803.03;5016521;28;20030;-62
2021/04/27 09:38:06;;;;;;;4.35;2.35;;;;;;;14.35;24.46;98788.88;5016448;28;20064;-62
2021/04/27 09:40:32;;;;;;;5.50;2.60;;;;;;;14.32;23.34;98786.72;5015944;28;20125;-62
2021/04/27 09:43:04;;;;;;;4.60;2.38;;;;;;;13.51;24.35;98783.22;5016508;28;20057;-62
2021/04/27 09:45:46;;;;;;;4.50;2.25;;;;;;;14.12;24.14;98779.53;5016053;28;20050;-62
2021/04/27 09:48:12;;;;;;;4.68;2.28;;;;;;;13.69;24.41;98783.72;5016278;28;20029;-61
2021/04/27 09:50:38;;;;;;;6.00;2.50;;;;;;;13.77;24.62;98775.09;5015824;28;20060;-62
2021/04/27 09:53:04;;;;;;;3.75;2.40;;;;;;;14.77;23.79;98776.75;5016007;28;20092;-62
2021/04/27 09:55:34;;;;;;;3.80;2.33;;;;;;;14.99;23.63;98772.81;5015635;28;20034;-62
2021/04/27 09:58:00;;;;;;;5.60;2.20;;;;;;;14.55;23.79;98773.66;5016424;28;20392;-62
2021/04/27 10:00:36;;;;;;;4.10;2.40;;;;;;;13.77;24.62;98764.31;4981979;28;20509;-62
2021/04/27 10:03:03;;;;;;;4.22;2.38;;;;;;;13.51;25.24;98769.78;5015701;28;20030;-61
2021/04/27 10:05:28;;;;;;;3.85;2.55;;;;;;;14.59;24.31;98763.94;5015391;28;20042;-62
2021/04/27 10:07:57;;;;;;;9.80;2.72;;;;;;;15.27;23.68;98761.22;5015570;28;20121;-62
2021/04/27 10:10:22;;;;;;;3.17;2.15;;;;;;;15.30;23.02;98763.38;5030574;28;20373;-62
2021/04/27 10:12:48;;;;;;;6.10;2.45;;;;;;;14.41;24.03;98757.28;5014454;28;20030;-62
2021/04/27 10:15:14;;;;;;;3.53;2.25;;;;;;;14.41;23.97;98752.69;5015451;28;20052;-62
2021/04/27 10:17:39;;;;;;;4.32;2.30;;;;;;;15.01;23.81;98746.38;5015776;28;20018;-62
2021/04/27 10:20:07;;;;;;;5.40;2.60;;;;;;;15.95;22.65;98745.97;5014108;28;20029;-61
2021/04/27 10:22:33;;;;;;;5.18;2.63;;;;;;;16.38;21.88;98748.63;5015897;28;20378;-62
2021/04/27 10:24:59;;;;;;;4.30;2.53;;;;;;;14.45;22.89;98747.53;5030612;28;20461;-62
2021/04/27 10:27:28;;;;;;;5.32;2.20;;;;;;;15.39;22.39;98746.56;4997535;28;20041;-62
2021/04/27 10:30:16;;;;;;;3.33;2.10;;;;;;;14.74;22.60;98739.56;4997868;28;20032;-63
2021/04/27 10:32:42;;;;;;;3.53;2.20;;;;;;;14.08;24.06;98726.47;5009502;28;20496;-62
2021/04/27 10:35:10;;;;;;;5.25;2.40;;;;;;;15.85;21.86;98729.84;5015073;28;20045;-63
2021/04/27 10:38:00;;;;;;;3.83;2.38;;;;;;;15.69;23.14;98715.69;5015619;28;20022;-62
2021/04/27 10:40:49;;;;;;;5.95;2.30;;;;;;;15.57;21.82;98723.41;5014846;28;20413;-62
2021/04/27 10:43:34;;;;;;;5.68;2.20;;;;;;;16.24;21.60;98720.69;5015151;28;20033;-62
2021/04/27 10:46:07;;;;;;;5.38;2.28;;;;;;;14.97;22.71;98724.53;5014995;28;20104;-62
2021/04/27 10:48:44;;;;;;;5.30;2.70;;;;;;;13.77;25.43;98718.53;5015213;28;20088;-62
2021/04/27 10:51:19;;;;;;;4.38;2.30;;;;;;;14.87;22.89;98711.13;5014638;28;20048;-62
2021/04/27 10:53:47;;;;;;;4.28;2.40;;;;;;;14.42;24.05;98711.16;5015463;28;20472;-62
2021/04/27 10:56:12;;;;;;;6.53;2.40;;;;;;;15.76;22.02;98699.19;5013443;28;20030;-63
2021/04/27 10:58:42;;;;;;;3.95;2.50;;;;;;;15.44;21.66;98700.59;5013646;28;20041;-62
2021/04/27 11:01:21;;;;;;;3.40;2.30;;;;;;;16.89;21.26;98698.38;5014503;28;20033;-62
2021/04/27 11:03:48;;;;;;;4.70;2.50;;;;;;;15.46;22.66;98701.13;5030040;28;20033;-63
2021/04/27 11:06:14;;;;;;;9.40;2.70;;;;;;;15.30;22.57;98697.75;5014306;28;20042;-63
2021/04/27 11:08:47;;;;;;;3.30;2.22;;;;;;;16.07;21.88;98689.56;5014593;28;20065;-62
2021/04/27 11:11:29;;;;;;;3.50;2.40;;;;;;;17.52;21.01;98680.69;5029567;28;20034;-62
2021/04/27 11:14:17;;;;;;;5.10;2.60;;;;;;;17.08;19.71;98671.25;5014239;28;20049;-63
2021/04/27 11:16:46;;;;;;;4.78;2.47;;;;;;;15.26;21.20;98683.25;5028645;28;20030;-63
2021/04/27 11:19:23;;;;;;;4.65;2.30;;;;;;;15.22;22.53;98677.59;5014739;28;20034;-63
2021/04/27 11:21:53;;;;;;;3.53;2.22;;;;;;;16.99;20.30;98671.91;5013992;28;20038;-62
2021/04/27 11:24:39;;;;;;;3.70;2.30;;;;;;;16.08;20.35;98676.88;4997021;28;20547;-63
2021/04/27 11:27:05;;;;;;;4.10;2.30;;;;;;;15.09;21.31;98670.19;4996175;28;20046;-62
2021/04/27 11:29:32;;;;;;;4.88;2.25;;;;;;;15.64;21.86;98661.72;5014352;28;20026;-63
2021/04/27 11:32:02;;;;;;;4.43;2.22;;;;;;;15.40;21.34;98665.28;5013720;28;20037;-63
2021/04/27 11:34:29;;;;;;;6.90;2.38;;;;;;;15.04;21.35;98665.63;5014345;28;20022;-63
2021/04/27 11:36:55;;;;;;;3.90;2.35;;;;;;;14.84;22.23;98658.53;4996476;28;20037;-63